North Loup, NE (68859)

5:15 AM CDT on July 14, 2014 (GMT -0500)
Sharp (KODX) Elev 2070 ft | 41.62 °N, 98.95 °W | Change Station

Current weather conditions updated 22 minutes ago

Scattered Clouds
Scattered Clouds
64 °F
Feels Like 64 °F
N
0
Wind Variable Wind from North

Today is forecast to be Much Cooler than yesterday.

Today
High -- | Low -- °F
--% Chance of Precip.
Yesterday
High -- | Low -- °F
Precip. -- in
6:13 AM 9:07 PM
Waning Gibbous, 94% visible
Pressure 30.05 in
Visibility 10.0 miles
Clouds Scattered Clouds 11000 ft
Dew Point 59 °F
Humidity 84%
Rainfall 0.08 in
Snow Depth Not available.
UV 0 out of 12
Pollen 4.40 out of 12
Air Quality Not available.
Flu Activity Sporadic
METAR KODX 140953Z AUTO 00000KT 10SM SCT110 18/15 A3008 RMK AO2 LTG DSNT SW AND W RAB0859E37 SLP174 P0001 T01780150

More Conditions Fewer Conditions

Pressure 30.05 in
Visibility 10.0 miles
Clouds Scattered Clouds 11000 ft
Dew Point 59 °F
Humidity 84%
Rainfall 0.08 in
Snow Depth Not available.
UV 0 out of 12
Pollen 4.40 out of 12
Air Quality Not available.
Flu Activity Sporadic
METAR KODX 140953Z AUTO 00000KT 10SM SCT110 18/15 A3008 RMK AO2 LTG DSNT SW AND W RAB0859E37 SLP174 P0001 T01780150

More Conditions Fewer Conditions

10-Day Weather Forecast

Almanac

Astronomy

Jul. 14, 2014 Rise Set
Actual Time 6:13 AM CDT 9:07 PM CDT
Civil Twilight 5:40 AM CDT 9:40 PM CDT
Nautical Twilight 4:58 AM CDT 10:22 PM CDT
Astronomical Twilight 4:10 AM CDT 11:10 PM CDT
Moon 10:35 PM CDT 9:00 AM CDT
Length of Visible Light 16h 00m
Length of Day
14h 54m
Tomorrow will be 1m 24s shorter.
Waning Gibbous, 94% of the Moon is Illuminated
Today
Waning Gibbous
Jul 18
Last Quarter
Jul 26
New
Aug 3
First Quarter
Aug 10
Full

Today's Extremes

State Highs State Lows

Community

WunderPhotos

Upload Photos

1,733,593 photos uploaded!

Nearby

Snow Depth

Station Depth Elevation
No new snow has been reported.

Earthquake Activity

City Distance Mag. Time & Date
No recent earthquake activity has been reported nearby.
Minimum magnitude displayed is 2.5.

Coastal Water Temperatures

Place Temperature
No Stations Reporting

Nearby Weather Stations

Station Location Temp. Dew Point Humidity Wind Precip. Elev Updated Type
Central, Loup City, NE 62.8 °F 62 °F 98% North  at  4.2 mph - / hr 2090 ft 5:06 AM CDT Normal

Show More Stations Show Fewer Stations